Stockton Metropolitan Airport (SCK/KSCK)


Airport Information
Location: Stockton, California
Coordinates: 37.8942 / -121.238
Field Elevation: 29ft
Longest Runway: 10,667ft
ILS Approaches: YES
Landing Fees: $1,321 per flight
Jet A Price: $0.48/lbs
Charts:

Current Weather
METAR: KSCK 010955Z AUTO 07004KT 10SM CLR 16/09 A2977 RMK AO2 SLP080 T01610094
TAF: KSCK 010520Z 0106/0206 30008KT P6SM SKC FM012300 30007G11KT P6SM FEW300 FM020500 VRB04KT P6SM SKC

No chart available



Recent Arrivals
Date Flight Type Depart
08/03/2021 CPX7334 A30F Chicago/Rockford Intl (KRFD)
Recent Departures
Date Flight Type Arrive
08/08/2021 CPX7385 A30F Fort Worth Alliance Airport (KAFW)